sensor_id;sensor_type;location;lat;lon;timestamp;P1;durP1;ratioP1;P2;durP2;ratioP2
9007;SDS011;62813;51.424;6.762;2024-03-25T00:02:04;25.63;;;11.60;;
9007;SDS011;62813;51.424;6.762;2024-03-25T00:04:30;23.07;;;13.40;;
9007;SDS011;62813;51.424;6.762;2024-03-25T00:06:55;32.13;;;14.83;;
9007;SDS011;62813;51.424;6.762;2024-03-25T00:09:22;29.97;;;15.00;;
9007;SDS011;62813;51.424;6.762;2024-03-25T00:11:47;27.40;;;17.47;;
9007;SDS011;62813;51.424;6.762;2024-03-25T00:14:13;35.07;;;19.73;;
9007;SDS011;62813;51.424;6.762;2024-03-25T00:16:38;40.07;;;19.30;;
9007;SDS011;62813;51.424;6.762;2024-03-25T00:19:04;42.67;;;20.20;;
9007;SDS011;62813;51.424;6.762;2024-03-25T00:21:29;46.80;;;21.80;;
9007;SDS011;62813;51.424;6.762;2024-03-25T00:23:54;34.03;;;15.00;;
9007;SDS011;62813;51.424;6.762;2024-03-25T00:26:23;26.80;;;12.20;;
9007;SDS011;62813;51.424;6.762;2024-03-25T00:28:49;28.73;;;10.97;;
9007;SDS011;62813;51.424;6.762;2024-03-25T00:31:14;25.13;;;8.97;;
9007;SDS011;62813;51.424;6.762;2024-03-25T00:33:40;26.37;;;8.57;;
9007;SDS011;62813;51.424;6.762;2024-03-25T00:36:05;20.60;;;6.70;;
9007;SDS011;62813;51.424;6.762;2024-03-25T00:38:31;24.83;;;7.30;;
9007;SDS011;62813;51.424;6.762;2024-03-25T00:40:56;24.83;;;5.70;;
9007;SDS011;62813;51.424;6.762;2024-03-25T00:43:23;17.00;;;5.43;;
9007;SDS011;62813;51.424;6.762;2024-03-25T00:45:48;17.70;;;4.90;;
9007;SDS011;62813;51.424;6.762;2024-03-25T00:48:13;18.13;;;4.40;;
9007;SDS011;62813;51.424;6.762;2024-03-25T00:50:41;21.00;;;4.60;;
9007;SDS011;62813;51.424;6.762;2024-03-25T00:53:07;23.20;;;5.10;;
9007;SDS011;62813;51.424;6.762;2024-03-25T00:55:33;18.83;;;4.87;;
9007;SDS011;62813;51.424;6.762;2024-03-25T00:57:58;22.63;;;4.30;;
9007;SDS011;62813;51.424;6.762;2024-03-25T01:00:24;12.50;;;4.30;;
9007;SDS011;62813;51.424;6.762;2024-03-25T01:02:50;23.43;;;5.37;;
9007;SDS011;62813;51.424;6.762;2024-03-25T01:05:15;16.37;;;4.50;;
9007;SDS011;62813;51.424;6.762;2024-03-25T01:07:41;21.63;;;5.17;;
9007;SDS011;62813;51.424;6.762;2024-03-25T01:10:07;18.70;;;5.10;;
9007;SDS011;62813;51.424;6.762;2024-03-25T01:12:32;15.80;;;4.03;;
9007;SDS011;62813;51.424;6.762;2024-03-25T01:14:58;20.80;;;4.23;;
9007;SDS011;62813;51.424;6.762;2024-03-25T01:17:23;14.77;;;3.60;;
9007;SDS011;62813;51.424;6.762;2024-03-25T01:19:48;18.37;;;4.57;;
9007;SDS011;62813;51.424;6.762;2024-03-25T01:22:14;12.40;;;3.97;;
9007;SDS011;62813;51.424;6.762;2024-03-25T01:24:39;19.07;;;4.17;;
9007;SDS011;62813;51.424;6.762;2024-03-25T01:27:05;16.63;;;4.17;;
9007;SDS011;62813;51.424;6.762;2024-03-25T01:29:30;16.63;;;4.17;;
9007;SDS011;62813;51.424;6.762;2024-03-25T01:31:56;18.27;;;4.50;;
9007;SDS011;62813;51.424;6.762;2024-03-25T01:34:23;13.93;;;4.20;;
9007;SDS011;62813;51.424;6.762;2024-03-25T01:36:49;18.10;;;4.83;;
9007;SDS011;62813;51.424;6.762;2024-03-25T01:39:14;14.07;;;4.27;;
9007;SDS011;62813;51.424;6.762;2024-03-25T01:41:40;16.57;;;4.20;;
9007;SDS011;62813;51.424;6.762;2024-03-25T01:44:05;12.83;;;4.07;;
9007;SDS011;62813;51.424;6.762;2024-03-25T01:46:31;21.10;;;3.63;;
9007;SDS011;62813;51.424;6.762;2024-03-25T01:48:56;17.07;;;4.87;;
9007;SDS011;62813;51.424;6.762;2024-03-25T01:51:23;21.20;;;4.63;;
9007;SDS011;62813;51.424;6.762;2024-03-25T01:53:49;14.17;;;4.30;;
9007;SDS011;62813;51.424;6.762;2024-03-25T01:56:15;13.20;;;3.80;;
9007;SDS011;62813;51.424;6.762;2024-03-25T01:58:41;15.43;;;4.40;;
9007;SDS011;62813;51.424;6.762;2024-03-25T02:01:07;27.13;;;4.67;;
9007;SDS011;62813;51.424;6.762;2024-03-25T02:03:35;18.23;;;4.30;;
9007;SDS011;62813;51.424;6.762;2024-03-25T02:06:02;15.67;;;3.97;;
9007;SDS011;62813;51.424;6.762;2024-03-25T02:08:28;11.50;;;3.83;;
9007;SDS011;62813;51.424;6.762;2024-03-25T02:10:54;23.13;;;4.60;;
9007;SDS011;62813;51.424;6.762;2024-03-25T02:13:20;20.77;;;4.47;;
9007;SDS011;62813;51.424;6.762;2024-03-25T02:15:45;18.03;;;4.50;;
9007;SDS011;62813;51.424;6.762;2024-03-25T02:18:10;19.23;;;3.97;;
9007;SDS011;62813;51.424;6.762;2024-03-25T02:20:36;22.00;;;4.80;;
9007;SDS011;62813;51.424;6.762;2024-03-25T02:23:01;18.03;;;4.67;;
9007;SDS011;62813;51.424;6.762;2024-03-25T02:25:27;18.53;;;4.40;;
9007;SDS011;62813;51.424;6.762;2024-03-25T02:27:53;19.57;;;4.30;;
9007;SDS011;62813;51.424;6.762;2024-03-25T02:30:18;18.37;;;3.93;;
9007;SDS011;62813;51.424;6.762;2024-03-25T02:32:43;16.50;;;5.07;;
9007;SDS011;62813;51.424;6.762;2024-03-25T02:35:10;14.63;;;3.77;;
9007;SDS011;62813;51.424;6.762;2024-03-25T02:37:38;15.23;;;3.83;;
9007;SDS011;62813;51.424;6.762;2024-03-25T02:40:04;13.43;;;3.70;;
9007;SDS011;62813;51.424;6.762;2024-03-25T02:42:32;21.00;;;4.63;;
9007;SDS011;62813;51.424;6.762;2024-03-25T02:44:57;19.70;;;4.97;;
9007;SDS011;62813;51.424;6.762;2024-03-25T02:47:23;17.23;;;4.53;;
9007;SDS011;62813;51.424;6.762;2024-03-25T02:49:49;18.50;;;4.60;;
9007;SDS011;62813;51.424;6.762;2024-03-25T02:52:14;15.97;;;4.27;;
9007;SDS011;62813;51.424;6.762;2024-03-25T02:54:40;14.80;;;3.90;;
9007;SDS011;62813;51.424;6.762;2024-03-25T02:57:05;14.57;;;4.83;;
9007;SDS011;62813;51.424;6.762;2024-03-25T02:59:31;16.30;;;4.77;;
9007;SDS011;62813;51.424;6.762;2024-03-25T03:01:56;15.70;;;4.77;;
9007;SDS011;62813;51.424;6.762;2024-03-25T03:04:22;13.43;;;4.87;;
9007;SDS011;62813;51.424;6.762;2024-03-25T03:06:47;18.00;;;4.70;;
9007;SDS011;62813;51.424;6.762;2024-03-25T03:09:13;18.77;;;5.37;;
9007;SDS011;62813;51.424;6.762;2024-03-25T03:11:38;21.73;;;6.03;;
9007;SDS011;62813;51.424;6.762;2024-03-25T03:14:03;18.67;;;5.23;;
9007;SDS011;62813;51.424;6.762;2024-03-25T03:16:29;19.27;;;5.80;;
9007;SDS011;62813;51.424;6.762;2024-03-25T03:18:55;22.07;;;5.07;;
9007;SDS011;62813;51.424;6.762;2024-03-25T03:21:20;18.23;;;5.20;;
9007;SDS011;62813;51.424;6.762;2024-03-25T03:23:46;15.13;;;5.37;;
9007;SDS011;62813;51.424;6.762;2024-03-25T03:26:11;17.90;;;5.47;;
9007;SDS011;62813;51.424;6.762;2024-03-25T03:28:37;20.20;;;5.23;;
9007;SDS011;62813;51.424;6.762;2024-03-25T03:31:03;17.23;;;5.30;;
9007;SDS011;62813;51.424;6.762;2024-03-25T03:33:28;19.67;;;6.10;;
9007;SDS011;62813;51.424;6.762;2024-03-25T03:35:54;14.43;;;5.07;;
9007;SDS011;62813;51.424;6.762;2024-03-25T03:38:21;19.77;;;5.00;;
9007;SDS011;62813;51.424;6.762;2024-03-25T03:40:56;17.27;;;5.23;;
9007;SDS011;62813;51.424;6.762;2024-03-25T03:43:22;19.97;;;5.30;;
9007;SDS011;62813;51.424;6.762;2024-03-25T03:45:47;18.60;;;5.47;;
9007;SDS011;62813;51.424;6.762;2024-03-25T03:48:13;19.97;;;5.43;;
9007;SDS011;62813;51.424;6.762;2024-03-25T03:50:38;14.37;;;4.90;;
9007;SDS011;62813;51.424;6.762;2024-03-25T03:53:03;18.37;;;5.73;;
9007;SDS011;62813;51.424;6.762;2024-03-25T03:55:29;22.23;;;5.20;;
9007;SDS011;62813;51.424;6.762;2024-03-25T03:57:54;21.50;;;5.40;;
9007;SDS011;62813;51.424;6.762;2024-03-25T04:02:47;14.27;;;5.17;;
9007;SDS011;62813;51.424;6.762;2024-03-25T04:05:13;12.77;;;5.33;;
9007;SDS011;62813;51.424;6.762;2024-03-25T04:07:38;22.27;;;5.57;;
9007;SDS011;62813;51.424;6.762;2024-03-25T04:10:04;37.67;;;18.13;;
9007;SDS011;62813;51.424;6.762;2024-03-25T04:12:29;46.30;;;24.90;;
9007;SDS011;62813;51.424;6.762;2024-03-25T04:14:55;24.00;;;10.30;;
9007;SDS011;62813;51.424;6.762;2024-03-25T04:17:21;18.63;;;5.57;;
9007;SDS011;62813;51.424;6.762;2024-03-25T04:19:47;22.13;;;5.63;;
9007;SDS011;62813;51.424;6.762;2024-03-25T04:22:13;15.80;;;5.43;;
9007;SDS011;62813;51.424;6.762;2024-03-25T04:24:38;20.07;;;5.80;;
9007;SDS011;62813;51.424;6.762;2024-03-25T04:27:03;20.73;;;5.27;;
9007;SDS011;62813;51.424;6.762;2024-03-25T04:29:29;14.93;;;5.50;;
9007;SDS011;62813;51.424;6.762;2024-03-25T04:31:54;20.43;;;5.27;;
9007;SDS011;62813;51.424;6.762;2024-03-25T04:34:20;17.27;;;5.37;;
9007;SDS011;62813;51.424;6.762;2024-03-25T04:36:46;24.13;;;11.80;;
9007;SDS011;62813;51.424;6.762;2024-03-25T04:39:11;31.37;;;11.00;;
9007;SDS011;62813;51.424;6.762;2024-03-25T04:41:36;44.70;;;20.97;;
9007;SDS011;62813;51.424;6.762;2024-03-25T04:44:02;20.70;;;6.50;;
9007;SDS011;62813;51.424;6.762;2024-03-25T04:46:27;11.63;;;5.73;;
9007;SDS011;62813;51.424;6.762;2024-03-25T04:48:53;13.20;;;5.63;;
9007;SDS011;62813;51.424;6.762;2024-03-25T04:51:19;14.30;;;5.33;;
9007;SDS011;62813;51.424;6.762;2024-03-25T04:53:44;15.80;;;5.40;;
9007;SDS011;62813;51.424;6.762;2024-03-25T04:56:09;16.87;;;4.80;;
9007;SDS011;62813;51.424;6.762;2024-03-25T04:58:35;15.13;;;5.57;;
9007;SDS011;62813;51.424;6.762;2024-03-25T05:01:01;16.27;;;5.83;;
9007;SDS011;62813;51.424;6.762;2024-03-25T05:03:26;17.33;;;6.13;;
9007;SDS011;62813;51.424;6.762;2024-03-25T05:05:52;19.67;;;5.67;;
9007;SDS011;62813;51.424;6.762;2024-03-25T05:08:17;14.13;;;5.23;;
9007;SDS011;62813;51.424;6.762;2024-03-25T05:10:42;14.50;;;6.43;;
9007;SDS011;62813;51.424;6.762;2024-03-25T05:13:08;28.70;;;12.53;;
9007;SDS011;62813;51.424;6.762;2024-03-25T05:15:33;47.50;;;24.20;;
9007;SDS011;62813;51.424;6.762;2024-03-25T05:17:59;23.40;;;10.43;;
9007;SDS011;62813;51.424;6.762;2024-03-25T05:20:24;19.57;;;6.10;;
9007;SDS011;62813;51.424;6.762;2024-03-25T05:22:51;17.97;;;6.40;;
9007;SDS011;62813;51.424;6.762;2024-03-25T05:25:17;13.50;;;5.00;;
9007;SDS011;62813;51.424;6.762;2024-03-25T05:27:42;18.30;;;5.80;;
9007;SDS011;62813;51.424;6.762;2024-03-25T05:30:08;19.67;;;6.30;;
9007;SDS011;62813;51.424;6.762;2024-03-25T05:32:33;23.00;;;5.70;;
9007;SDS011;62813;51.424;6.762;2024-03-25T05:34:59;15.83;;;5.93;;
9007;SDS011;62813;51.424;6.762;2024-03-25T05:37:24;16.47;;;5.73;;
9007;SDS011;62813;51.424;6.762;2024-03-25T05:39:49;17.27;;;5.73;;
9007;SDS011;62813;51.424;6.762;2024-03-25T05:42:15;17.20;;;6.10;;
9007;SDS011;62813;51.424;6.762;2024-03-25T05:44:40;24.83;;;8.77;;
9007;SDS011;62813;51.424;6.762;2024-03-25T05:47:06;23.87;;;9.73;;
9007;SDS011;62813;51.424;6.762;2024-03-25T05:49:31;23.73;;;11.53;;
9007;SDS011;62813;51.424;6.762;2024-03-25T05:51:57;20.37;;;9.20;;
9007;SDS011;62813;51.424;6.762;2024-03-25T05:54:22;22.10;;;7.00;;
9007;SDS011;62813;51.424;6.762;2024-03-25T05:56:47;22.53;;;6.27;;
9007;SDS011;62813;51.424;6.762;2024-03-25T05:59:13;25.23;;;11.30;;
9007;SDS011;62813;51.424;6.762;2024-03-25T06:01:38;40.87;;;19.93;;
9007;SDS011;62813;51.424;6.762;2024-03-25T06:04:08;47.53;;;25.30;;
9007;SDS011;62813;51.424;6.762;2024-03-25T06:06:33;31.50;;;14.27;;
9007;SDS011;62813;51.424;6.762;2024-03-25T06:08:58;40.67;;;17.97;;
9007;SDS011;62813;51.424;6.762;2024-03-25T06:11:24;23.70;;;10.20;;
9007;SDS011;62813;51.424;6.762;2024-03-25T06:13:49;18.93;;;7.73;;
9007;SDS011;62813;51.424;6.762;2024-03-25T06:16:15;14.73;;;5.90;;
9007;SDS011;62813;51.424;6.762;2024-03-25T06:18:40;16.67;;;5.87;;
9007;SDS011;62813;51.424;6.762;2024-03-25T06:21:06;26.03;;;11.63;;
9007;SDS011;62813;51.424;6.762;2024-03-25T06:23:31;31.83;;;15.80;;
9007;SDS011;62813;51.424;6.762;2024-03-25T06:25:57;48.00;;;24.97;;
9007;SDS011;62813;51.424;6.762;2024-03-25T06:28:22;49.23;;;24.83;;
9007;SDS011;62813;51.424;6.762;2024-03-25T06:30:48;28.53;;;12.37;;
9007;SDS011;62813;51.424;6.762;2024-03-25T06:33:33;18.70;;;6.80;;
9007;SDS011;62813;51.424;6.762;2024-03-25T06:36:17;31.73;;;16.73;;
9007;SDS011;62813;51.424;6.762;2024-03-25T06:38:42;20.97;;;8.50;;
9007;SDS011;62813;51.424;6.762;2024-03-25T06:41:08;24.63;;;7.10;;
9007;SDS011;62813;51.424;6.762;2024-03-25T06:43:34;20.53;;;6.50;;
9007;SDS011;62813;51.424;6.762;2024-03-25T06:45:59;21.03;;;6.27;;
9007;SDS011;62813;51.424;6.762;2024-03-25T06:48:25;19.37;;;6.63;;
9007;SDS011;62813;51.424;6.762;2024-03-25T06:50:56;18.30;;;6.37;;
9007;SDS011;62813;51.424;6.762;2024-03-25T06:53:22;17.40;;;7.13;;
9007;SDS011;62813;51.424;6.762;2024-03-25T06:55:57;18.80;;;6.67;;
9007;SDS011;62813;51.424;6.762;2024-03-25T06:58:24;15.20;;;6.07;;
9007;SDS011;62813;51.424;6.762;2024-03-25T07:00:49;15.53;;;5.80;;
9007;SDS011;62813;51.424;6.762;2024-03-25T07:03:18;19.33;;;6.43;;
9007;SDS011;62813;51.424;6.762;2024-03-25T07:05:47;16.23;;;5.80;;
9007;SDS011;62813;51.424;6.762;2024-03-25T07:08:14;13.67;;;5.50;;
9007;SDS011;62813;51.424;6.762;2024-03-25T07:10:42;18.13;;;6.50;;
9007;SDS011;62813;51.424;6.762;2024-03-25T07:13:08;25.27;;;12.93;;
9007;SDS011;62813;51.424;6.762;2024-03-25T07:15:33;47.00;;;25.57;;
9007;SDS011;62813;51.424;6.762;2024-03-25T07:17:59;19.93;;;8.50;;
9007;SDS011;62813;51.424;6.762;2024-03-25T07:20:25;18.57;;;6.20;;
9007;SDS011;62813;51.424;6.762;2024-03-25T07:22:52;17.80;;;6.53;;
9007;SDS011;62813;51.424;6.762;2024-03-25T07:25:20;18.53;;;6.63;;
9007;SDS011;62813;51.424;6.762;2024-03-25T07:27:45;21.27;;;6.17;;
9007;SDS011;62813;51.424;6.762;2024-03-25T07:30:10;16.93;;;6.50;;
9007;SDS011;62813;51.424;6.762;2024-03-25T07:32:36;17.90;;;5.87;;
9007;SDS011;62813;51.424;6.762;2024-03-25T07:35:01;12.73;;;5.60;;
9007;SDS011;62813;51.424;6.762;2024-03-25T07:37:27;20.13;;;5.63;;
9007;SDS011;62813;51.424;6.762;2024-03-25T07:39:52;15.83;;;5.73;;
9007;SDS011;62813;51.424;6.762;2024-03-25T07:42:18;15.43;;;5.63;;
9007;SDS011;62813;51.424;6.762;2024-03-25T07:44:44;15.37;;;5.87;;
9007;SDS011;62813;51.424;6.762;2024-03-25T07:47:12;18.07;;;5.00;;
9007;SDS011;62813;51.424;6.762;2024-03-25T07:49:37;20.57;;;5.43;;
9007;SDS011;62813;51.424;6.762;2024-03-25T07:52:05;16.93;;;5.80;;
9007;SDS011;62813;51.424;6.762;2024-03-25T07:54:31;22.03;;;6.37;;
9007;SDS011;62813;51.424;6.762;2024-03-25T07:56:56;16.30;;;5.10;;
9007;SDS011;62813;51.424;6.762;2024-03-25T07:59:21;21.33;;;6.20;;
9007;SDS011;62813;51.424;6.762;2024-03-25T08:01:47;22.43;;;8.83;;
9007;SDS011;62813;51.424;6.762;2024-03-25T08:04:12;31.03;;;15.47;;
9007;SDS011;62813;51.424;6.762;2024-03-25T08:06:38;22.17;;;9.37;;
9007;SDS011;62813;51.424;6.762;2024-03-25T08:09:03;14.10;;;5.73;;
9007;SDS011;62813;51.424;6.762;2024-03-25T08:11:31;17.97;;;6.77;;
9007;SDS011;62813;51.424;6.762;2024-03-25T08:13:56;36.30;;;18.63;;
9007;SDS011;62813;51.424;6.762;2024-03-25T08:16:23;29.73;;;14.57;;
9007;SDS011;62813;51.424;6.762;2024-03-25T08:18:48;23.63;;;14.60;;
9007;SDS011;62813;51.424;6.762;2024-03-25T08:21:14;19.03;;;10.63;;
9007;SDS011;62813;51.424;6.762;2024-03-25T08:23:39;21.53;;;5.93;;
9007;SDS011;62813;51.424;6.762;2024-03-25T08:26:05;19.60;;;5.30;;
9007;SDS011;62813;51.424;6.762;2024-03-25T08:28:32;16.80;;;4.77;;
9007;SDS011;62813;51.424;6.762;2024-03-25T08:30:58;14.87;;;5.23;;
9007;SDS011;62813;51.424;6.762;2024-03-25T08:33:23;12.13;;;4.23;;
9007;SDS011;62813;51.424;6.762;2024-03-25T08:35:49;9.87;;;3.83;;
9007;SDS011;62813;51.424;6.762;2024-03-25T08:38:14;16.03;;;4.47;;
9007;SDS011;62813;51.424;6.762;2024-03-25T08:40:39;17.53;;;4.73;;
9007;SDS011;62813;51.424;6.762;2024-03-25T08:43:05;12.60;;;5.03;;
9007;SDS011;62813;51.424;6.762;2024-03-25T08:45:32;16.50;;;4.43;;
9007;SDS011;62813;51.424;6.762;2024-03-25T08:47:57;16.97;;;4.50;;
9007;SDS011;62813;51.424;6.762;2024-03-25T08:50:23;12.40;;;4.80;;
9007;SDS011;62813;51.424;6.762;2024-03-25T08:52:49;12.17;;;4.83;;
9007;SDS011;62813;51.424;6.762;2024-03-25T08:55:14;19.43;;;5.23;;
9007;SDS011;62813;51.424;6.762;2024-03-25T08:57:40;14.50;;;4.50;;
9007;SDS011;62813;51.424;6.762;2024-03-25T09:00:05;15.80;;;4.63;;
9007;SDS011;62813;51.424;6.762;2024-03-25T09:02:35;13.87;;;4.27;;
9007;SDS011;62813;51.424;6.762;2024-03-25T09:05:01;16.70;;;5.20;;
9007;SDS011;62813;51.424;6.762;2024-03-25T09:07:26;19.53;;;4.70;;
9007;SDS011;62813;51.424;6.762;2024-03-25T09:09:52;16.07;;;4.63;;
9007;SDS011;62813;51.424;6.762;2024-03-25T09:12:36;21.27;;;5.37;;
9007;SDS011;62813;51.424;6.762;2024-03-25T09:15:02;14.17;;;5.97;;
9007;SDS011;62813;51.424;6.762;2024-03-25T09:17:27;14.97;;;6.90;;
9007;SDS011;62813;51.424;6.762;2024-03-25T09:19:53;21.37;;;7.83;;
9007;SDS011;62813;51.424;6.762;2024-03-25T09:22:18;19.10;;;7.03;;
9007;SDS011;62813;51.424;6.762;2024-03-25T09:24:43;19.63;;;6.40;;
9007;SDS011;62813;51.424;6.762;2024-03-25T09:27:10;20.30;;;7.00;;
9007;SDS011;62813;51.424;6.762;2024-03-25T09:29:35;15.67;;;6.77;;
9007;SDS011;62813;51.424;6.762;2024-03-25T09:32:01;18.10;;;6.53;;
9007;SDS011;62813;51.424;6.762;2024-03-25T09:34:26;17.47;;;8.23;;
9007;SDS011;62813;51.424;6.762;2024-03-25T09:36:52;17.50;;;6.40;;
9007;SDS011;62813;51.424;6.762;2024-03-25T09:39:17;19.67;;;8.23;;
9007;SDS011;62813;51.424;6.762;2024-03-25T09:41:45;13.83;;;4.93;;
9007;SDS011;62813;51.424;6.762;2024-03-25T09:44:11;14.50;;;3.83;;
9007;SDS011;62813;51.424;6.762;2024-03-25T09:46:37;14.90;;;3.97;;
9007;SDS011;62813;51.424;6.762;2024-03-25T09:49:02;10.53;;;3.60;;
9007;SDS011;62813;51.424;6.762;2024-03-25T09:51:30;7.93;;;3.13;;
9007;SDS011;62813;51.424;6.762;2024-03-25T09:53:56;14.00;;;3.50;;
9007;SDS011;62813;51.424;6.762;2024-03-25T09:56:21;8.47;;;2.67;;
9007;SDS011;62813;51.424;6.762;2024-03-25T09:58:47;14.53;;;3.50;;
9007;SDS011;62813;51.424;6.762;2024-03-25T10:01:12;12.57;;;3.40;;
9007;SDS011;62813;51.424;6.762;2024-03-25T10:03:38;13.10;;;3.73;;
9007;SDS011;62813;51.424;6.762;2024-03-25T10:06:04;13.57;;;3.40;;
9007;SDS011;62813;51.424;6.762;2024-03-25T10:08:29;10.97;;;3.77;;
9007;SDS011;62813;51.424;6.762;2024-03-25T10:10:55;11.73;;;4.37;;
9007;SDS011;62813;51.424;6.762;2024-03-25T10:13:21;8.93;;;4.20;;
9007;SDS011;62813;51.424;6.762;2024-03-25T10:15:47;8.93;;;4.23;;
9007;SDS011;62813;51.424;6.762;2024-03-25T10:18:13;12.43;;;7.13;;
9007;SDS011;62813;51.424;6.762;2024-03-25T10:20:38;16.43;;;6.40;;
9007;SDS011;62813;51.424;6.762;2024-03-25T10:23:04;12.37;;;4.20;;
9007;SDS011;62813;51.424;6.762;2024-03-25T10:25:30;10.07;;;3.90;;
9007;SDS011;62813;51.424;6.762;2024-03-25T10:28:01;13.50;;;3.77;;
9007;SDS011;62813;51.424;6.762;2024-03-25T10:30:28;13.07;;;3.77;;
9007;SDS011;62813;51.424;6.762;2024-03-25T10:32:57;11.00;;;3.63;;
9007;SDS011;62813;51.424;6.762;2024-03-25T10:35:23;13.93;;;4.50;;
9007;SDS011;62813;51.424;6.762;2024-03-25T10:37:49;14.07;;;4.70;;
9007;SDS011;62813;51.424;6.762;2024-03-25T10:40:15;9.90;;;3.70;;
9007;SDS011;62813;51.424;6.762;2024-03-25T10:42:40;10.10;;;3.93;;
9007;SDS011;62813;51.424;6.762;2024-03-25T10:45:07;11.83;;;4.10;;
9007;SDS011;62813;51.424;6.762;2024-03-25T10:47:33;14.53;;;4.20;;
9007;SDS011;62813;51.424;6.762;2024-03-25T10:49:59;9.93;;;3.77;;
9007;SDS011;62813;51.424;6.762;2024-03-25T10:52:27;10.33;;;4.60;;
9007;SDS011;62813;51.424;6.762;2024-03-25T10:54:54;10.50;;;4.33;;
9007;SDS011;62813;51.424;6.762;2024-03-25T10:57:20;13.33;;;4.13;;
9007;SDS011;62813;51.424;6.762;2024-03-25T10:59:46;12.20;;;4.33;;
9007;SDS011;62813;51.424;6.762;2024-03-25T11:02:11;15.93;;;5.10;;
9007;SDS011;62813;51.424;6.762;2024-03-25T11:04:37;12.37;;;4.53;;
9007;SDS011;62813;51.424;6.762;2024-03-25T11:07:09;9.23;;;4.57;;
9007;SDS011;62813;51.424;6.762;2024-03-25T11:09:36;11.90;;;5.13;;
9007;SDS011;62813;51.424;6.762;2024-03-25T11:12:01;12.90;;;6.73;;
9007;SDS011;62813;51.424;6.762;2024-03-25T11:14:27;11.83;;;6.60;;
9007;SDS011;62813;51.424;6.762;2024-03-25T11:16:53;17.33;;;5.77;;
9007;SDS011;62813;51.424;6.762;2024-03-25T11:19:19;15.67;;;4.57;;
9007;SDS011;62813;51.424;6.762;2024-03-25T11:21:46;10.80;;;4.20;;
9007;SDS011;62813;51.424;6.762;2024-03-25T11:24:11;11.27;;;4.00;;
9007;SDS011;62813;51.424;6.762;2024-03-25T11:26:41;10.10;;;4.57;;
9007;SDS011;62813;51.424;6.762;2024-03-25T11:29:07;10.40;;;4.53;;
9007;SDS011;62813;51.424;6.762;2024-03-25T11:31:32;12.90;;;5.00;;
9007;SDS011;62813;51.424;6.762;2024-03-25T11:34:03;11.70;;;5.23;;
9007;SDS011;62813;51.424;6.762;2024-03-25T11:36:29;12.17;;;4.50;;
9007;SDS011;62813;51.424;6.762;2024-03-25T11:39:02;11.87;;;4.77;;
9007;SDS011;62813;51.424;6.762;2024-03-25T11:41:41;12.40;;;4.87;;
9007;SDS011;62813;51.424;6.762;2024-03-25T11:44:09;8.40;;;4.97;;
9007;SDS011;62813;51.424;6.762;2024-03-25T11:46:39;13.53;;;4.87;;
9007;SDS011;62813;51.424;6.762;2024-03-25T11:49:12;10.20;;;4.47;;
9007;SDS011;62813;51.424;6.762;2024-03-25T11:51:38;13.23;;;4.67;;
9007;SDS011;62813;51.424;6.762;2024-03-25T11:54:07;13.50;;;4.73;;
9007;SDS011;62813;51.424;6.762;2024-03-25T11:56:32;11.20;;;6.70;;
9007;SDS011;62813;51.424;6.762;2024-03-25T11:59:01;13.63;;;6.80;;
9007;SDS011;62813;51.424;6.762;2024-03-25T12:01:28;18.23;;;10.20;;
9007;SDS011;62813;51.424;6.762;2024-03-25T12:03:53;15.03;;;9.13;;
9007;SDS011;62813;51.424;6.762;2024-03-25T12:06:19;11.13;;;6.03;;
9007;SDS011;62813;51.424;6.762;2024-03-25T12:08:45;17.47;;;11.40;;
9007;SDS011;62813;51.424;6.762;2024-03-25T12:11:31;13.37;;;6.67;;
9007;SDS011;62813;51.424;6.762;2024-03-25T12:13:56;15.33;;;7.80;;
9007;SDS011;62813;51.424;6.762;2024-03-25T12:16:22;8.57;;;3.60;;
9007;SDS011;62813;51.424;6.762;2024-03-25T12:18:48;8.87;;;3.43;;
9007;SDS011;62813;51.424;6.762;2024-03-25T12:21:13;8.80;;;3.20;;
9007;SDS011;62813;51.424;6.762;2024-03-25T12:23:39;10.97;;;3.97;;
9007;SDS011;62813;51.424;6.762;2024-03-25T12:26:07;11.53;;;7.77;;
9007;SDS011;62813;51.424;6.762;2024-03-25T12:28:33;9.20;;;4.07;;
9007;SDS011;62813;51.424;6.762;2024-03-25T12:31:06;8.53;;;2.67;;
9007;SDS011;62813;51.424;6.762;2024-03-25T12:33:39;7.97;;;2.73;;
9007;SDS011;62813;51.424;6.762;2024-03-25T12:36:05;8.23;;;2.70;;
9007;SDS011;62813;51.424;6.762;2024-03-25T12:38:30;8.33;;;2.60;;
9007;SDS011;62813;51.424;6.762;2024-03-25T12:41:05;7.27;;;3.10;;
9007;SDS011;62813;51.424;6.762;2024-03-25T12:43:34;8.13;;;2.80;;
9007;SDS011;62813;51.424;6.762;2024-03-25T12:46:00;8.17;;;3.07;;
9007;SDS011;62813;51.424;6.762;2024-03-25T12:48:25;8.10;;;2.53;;
9007;SDS011;62813;51.424;6.762;2024-03-25T12:50:51;7.37;;;2.70;;
9007;SDS011;62813;51.424;6.762;2024-03-25T12:53:17;10.37;;;3.37;;
9007;SDS011;62813;51.424;6.762;2024-03-25T12:55:43;7.27;;;2.90;;
9007;SDS011;62813;51.424;6.762;2024-03-25T12:58:09;7.00;;;3.50;;
9007;SDS011;62813;51.424;6.762;2024-03-25T13:00:34;5.57;;;2.73;;
9007;SDS011;62813;51.424;6.762;2024-03-25T13:03:00;5.60;;;2.97;;
9007;SDS011;62813;51.424;6.762;2024-03-25T13:05:27;7.90;;;3.03;;
9007;SDS011;62813;51.424;6.762;2024-03-25T13:07:53;6.97;;;3.33;;
9007;SDS011;62813;51.424;6.762;2024-03-25T13:10:19;8.07;;;4.17;;
9007;SDS011;62813;51.424;6.762;2024-03-25T13:12:44;5.97;;;3.50;;
9007;SDS011;62813;51.424;6.762;2024-03-25T13:15:10;6.47;;;3.00;;
9007;SDS011;62813;51.424;6.762;2024-03-25T13:17:35;7.80;;;3.03;;
9007;SDS011;62813;51.424;6.762;2024-03-25T13:20:00;10.03;;;2.90;;
9007;SDS011;62813;51.424;6.762;2024-03-25T13:22:26;17.17;;;12.00;;
9007;SDS011;62813;51.424;6.762;2024-03-25T13:24:51;8.53;;;4.63;;
9007;SDS011;62813;51.424;6.762;2024-03-25T13:27:17;9.20;;;3.23;;
9007;SDS011;62813;51.424;6.762;2024-03-25T13:29:42;10.73;;;3.03;;
9007;SDS011;62813;51.424;6.762;2024-03-25T13:32:08;6.87;;;2.97;;
9007;SDS011;62813;51.424;6.762;2024-03-25T13:34:34;11.37;;;4.27;;
9007;SDS011;62813;51.424;6.762;2024-03-25T13:36:59;11.67;;;6.63;;
9007;SDS011;62813;51.424;6.762;2024-03-25T13:39:24;7.77;;;3.70;;
9007;SDS011;62813;51.424;6.762;2024-03-25T13:41:50;8.77;;;3.37;;
9007;SDS011;62813;51.424;6.762;2024-03-25T13:44:15;8.90;;;2.80;;
9007;SDS011;62813;51.424;6.762;2024-03-25T13:46:41;6.30;;;2.73;;
9007;SDS011;62813;51.424;6.762;2024-03-25T13:49:06;9.37;;;3.37;;
9007;SDS011;62813;51.424;6.762;2024-03-25T13:51:32;6.77;;;2.87;;
9007;SDS011;62813;51.424;6.762;2024-03-25T13:53:57;4.67;;;2.50;;
9007;SDS011;62813;51.424;6.762;2024-03-25T13:56:22;6.90;;;2.90;;
9007;SDS011;62813;51.424;6.762;2024-03-25T13:58:48;8.40;;;3.10;;
9007;SDS011;62813;51.424;6.762;2024-03-25T14:01:13;6.80;;;2.70;;
9007;SDS011;62813;51.424;6.762;2024-03-25T14:03:40;7.27;;;2.70;;
9007;SDS011;62813;51.424;6.762;2024-03-25T14:06:06;7.63;;;3.00;;
9007;SDS011;62813;51.424;6.762;2024-03-25T14:08:31;6.90;;;2.67;;
9007;SDS011;62813;51.424;6.762;2024-03-25T14:10:57;6.77;;;2.40;;
9007;SDS011;62813;51.424;6.762;2024-03-25T14:13:24;8.20;;;3.57;;
9007;SDS011;62813;51.424;6.762;2024-03-25T14:15:50;5.63;;;2.33;;
9007;SDS011;62813;51.424;6.762;2024-03-25T14:18:15;7.77;;;2.40;;
9007;SDS011;62813;51.424;6.762;2024-03-25T14:20:41;6.23;;;2.50;;
9007;SDS011;62813;51.424;6.762;2024-03-25T14:23:06;5.53;;;2.33;;
9007;SDS011;62813;51.424;6.762;2024-03-25T14:25:32;4.47;;;1.90;;
9007;SDS011;62813;51.424;6.762;2024-03-25T14:27:57;6.20;;;2.10;;
9007;SDS011;62813;51.424;6.762;2024-03-25T14:30:23;4.23;;;2.10;;
9007;SDS011;62813;51.424;6.762;2024-03-25T14:32:48;5.90;;;2.07;;
9007;SDS011;62813;51.424;6.762;2024-03-25T14:35:14;4.90;;;2.00;;
9007;SDS011;62813;51.424;6.762;2024-03-25T14:37:39;7.23;;;2.47;;
9007;SDS011;62813;51.424;6.762;2024-03-25T14:40:05;5.97;;;2.00;;
9007;SDS011;62813;51.424;6.762;2024-03-25T14:42:31;4.90;;;2.10;;
9007;SDS011;62813;51.424;6.762;2024-03-25T14:44:57;7.93;;;5.10;;